Time;durP1;ratioP1;P1;durP2;ratioP2;P2;SDS_P1;SDS_P2;PMS_P1;PMS_P2;Temp;Humidity;BMP_temperature;BMP_pressure;BME280_temperature;BME280_humidity;BME280_pressure;Samples;Min_cycle;Max_cycle;Signal;HPM_P1;HPM_P2
2022/03/05 00:01:00;;;;;;;21.52;10.90;;;;;;;0.51;100.00;147799.91;1642493;86;46685;-64
2022/03/05 00:03:27;;;;;;;22.40;10.45;;;;;;;0.47;100.00;147790.87;1641846;86;21032;-63
2022/03/05 00:05:54;;;;;;;21.87;11.15;;;;;;;0.45;100.00;147785.72;1629383;87;20994;-64
2022/03/05 00:08:22;;;;;;;20.60;10.75;;;;;;;0.45;100.00;147785.72;1630296;86;21080;-60
2022/03/05 00:10:51;;;;;;;17.92;10.60;;;;;;;0.42;100.00;147778.00;1632327;86;21033;-59
2022/03/05 00:13:18;;;;;;;22.20;11.38;;;;;;;0.41;100.00;147776.69;1654663;86;21170;-59
2022/03/05 00:15:46;;;;;;;21.82;11.15;;;;;;;0.39;100.00;147770.28;1654343;86;20980;-59
2022/03/05 00:18:14;;;;;;;18.87;10.28;;;;;;;0.37;100.00;147765.14;1627541;87;21115;-59
2022/03/05 00:20:44;;;;;;;19.42;10.85;;;;;;;0.34;100.00;147757.44;1649736;85;21038;-59
2022/03/05 00:23:14;;;;;;;20.75;10.70;;;;;;;0.31;100.00;147749.66;1613617;88;21362;-59
2022/03/05 00:25:42;;;;;;;18.50;10.32;;;;;;;0.28;100.00;147744.52;1639831;87;21781;-59
2022/03/05 00:28:09;;;;;;;21.30;11.05;;;;;;;0.25;100.00;147736.80;1641750;86;21294;-59
2022/03/05 00:30:36;;;;;;;18.48;10.53;;;;;;;0.24;100.00;147732.97;1606916;88;21088;-58
2022/03/05 00:33:05;;;;;;;18.42;10.43;;;;;;;0.22;100.00;147729.08;1625164;88;21257;-59
2022/03/05 00:35:36;;;;;;;19.98;11.08;;;;;;;0.20;100.00;147723.94;1625147;88;21055;-60
2022/03/05 00:38:03;;;;;;;20.35;11.00;;;;;;;0.18;100.00;147717.48;1625528;87;21887;-59
2022/03/05 00:40:31;;;;;;;19.80;11.45;;;;;;;0.16;100.00;147713.66;1625165;88;21051;-59
2022/03/05 00:42:58;;;;;;;20.75;11.50;;;;;;;0.13;100.00;147705.94;1623917;87;20981;-59
2022/03/05 00:45:25;;;;;;;20.57;10.95;;;;;;;0.11;100.00;147700.75;1624913;88;21090;-64
2022/03/05 00:47:53;;;;;;;19.40;11.45;;;;;;;0.11;100.00;147700.75;1625831;88;21058;-59
2022/03/05 00:50:20;;;;;;;21.73;11.33;;;;;;;0.11;100.00;147702.05;1624769;88;21834;-59
2022/03/05 00:52:47;;;;;;;26.75;12.37;;;;;;;0.12;100.00;147703.36;1623950;88;21085;-59
2022/03/05 00:55:14;;;;;;;21.93;11.38;;;;;;;0.12;100.00;147704.63;1621498;88;21445;-64
2022/03/05 00:57:41;;;;;;;24.10;12.85;;;;;;;0.13;100.00;147705.94;1625262;88;21164;-63
2022/03/05 01:00:11;;;;;;;21.75;11.90;;;;;;;0.15;100.00;147711.08;1624484;87;21090;-63
2022/03/05 01:02:40;;;;;;;20.08;10.98;;;;;;;0.17;100.00;147716.22;1625434;87;21754;-60
2022/03/05 01:05:08;;;;;;;23.18;11.53;;;;;;;0.18;100.00;147718.80;1624871;87;21094;-59
2022/03/05 01:07:35;;;;;;;23.62;12.10;;;;;;;0.19;100.00;147721.38;1624480;87;21136;-58
2022/03/05 01:10:05;;;;;;;20.40;11.30;;;;;;;0.20;100.00;147723.94;1621018;87;21196;-59
2022/03/05 01:12:36;;;;;;;20.25;11.50;;;;;;;0.21;100.00;147726.50;1627105;88;21660;-59
2022/03/05 01:15:04;;;;;;;25.62;11.97;;;;;;;0.21;100.00;147726.50;1655217;86;21518;-64
2022/03/05 01:17:32;;;;;;;20.70;11.35;;;;;;;0.20;100.00;147723.94;1628954;87;21033;-63
2022/03/05 01:20:03;;;;;;;21.85;11.18;;;;;;;0.20;100.00;147723.94;1644872;85;21554;-63
2022/03/05 01:22:33;;;;;;;22.93;12.58;;;;;;;0.22;100.00;147729.08;1641122;86;21554;-63
2022/03/05 01:25:08;;;;;;;22.13;12.10;;;;;;;0.20;100.00;147722.63;1641772;86;21725;-59
2022/03/05 01:27:35;;;;;;;18.17;10.60;;;;;;;0.17;100.00;147716.22;1642787;87;21864;-59
2022/03/05 01:30:03;;;;;;;21.80;12.23;;;;;;;0.16;100.00;147713.66;1632338;87;21004;-59
2022/03/05 01:32:30;;;;;;;21.90;12.15;;;;;;;0.14;100.00;147708.50;1620330;88;21139;-58
2022/03/05 01:34:58;;;;;;;20.65;11.75;;;;;;;0.11;100.00;147700.75;1598437;89;21035;-59
2022/03/05 01:37:26;;;;;;;24.47;12.13;;;;;;;0.09;100.00;147695.59;1655898;86;21075;-63
2022/03/05 01:39:53;;;;;;;22.82;12.30;;;;;;;0.08;100.00;147693.03;1655466;86;21155;-63
2022/03/05 01:42:21;;;;;;;24.27;12.07;;;;;;;0.06;100.00;147687.87;1654619;86;21100;-64
2022/03/05 01:44:49;;;;;;;21.27;12.03;;;;;;;0.06;100.00;147689.19;1655923;86;21414;-63
2022/03/05 01:47:16;;;;;;;22.80;12.35;;;;;;;0.05;100.00;147685.31;1655229;86;21063;-63
2022/03/05 01:49:43;;;;;;;24.43;12.88;;;;;;;0.06;100.00;147687.87;1654930;86;21178;-63
2022/03/05 01:52:11;;;;;;;22.82;12.95;;;;;;;0.06;100.00;147689.19;1655682;86;21129;-65
2022/03/05 01:54:39;;;;;;;22.45;11.95;;;;;;;0.06;100.00;147689.19;1655154;85;21071;-64
2022/03/05 01:57:06;;;;;;;20.62;11.93;;;;;;;0.08;100.00;147693.03;1655248;86;21552;-60
2022/03/05 01:59:34;;;;;;;21.87;12.05;;;;;;;0.10;100.00;147699.48;1655627;86;21994;-64
2022/03/05 02:02:01;;;;;;;24.52;12.07;;;;;;;0.12;100.00;147703.36;1654820;86;21072;-64
2022/03/05 02:04:29;;;;;;;24.02;12.58;;;;;;;0.16;100.00;147712.34;1655684;86;21536;-63
2022/03/05 02:06:57;;;;;;;22.98;12.55;;;;;;;0.23;100.00;147730.39;1655728;86;20993;-63
2022/03/05 02:09:26;;;;;;;24.57;12.35;;;;;;;0.27;100.00;147741.94;1652370;86;21419;-63
2022/03/05 02:11:54;;;;;;;24.05;12.75;;;;;;;0.30;100.00;147747.09;1660882;85;20952;-63
2022/03/05 02:14:21;;;;;;;22.95;13.13;;;;;;;0.35;100.00;147761.27;1669358;85;21056;-63
2022/03/05 02:16:48;;;;;;;21.30;12.93;;;;;;;0.41;100.00;147776.69;1669304;84;21462;-63
2022/03/05 02:19:17;;;;;;;21.68;12.75;;;;;;;0.48;100.00;147793.44;1669377;85;20945;-64
2022/03/05 02:21:46;;;;;;;23.35;12.73;;;;;;;0.52;100.00;147802.47;1647833;85;21120;-64
2022/03/05 02:24:15;;;;;;;24.50;13.35;;;;;;;0.58;100.00;147816.64;1641745;86;21148;-62
2022/03/05 02:26:44;;;;;;;26.12;12.93;;;;;;;0.63;100.00;147830.78;1642434;87;21104;-63
2022/03/05 02:29:12;;;;;;;22.73;12.50;;;;;;;0.68;100.00;147842.38;1639480;87;21257;-63
2022/03/05 02:31:39;;;;;;;22.67;11.90;;;;;;;0.69;100.00;147844.95;1625897;87;21084;-64
2022/03/05 02:34:06;;;;;;;21.40;12.15;;;;;;;0.71;100.00;147850.09;1625683;88;21485;-64
2022/03/05 02:36:35;;;;;;;23.87;13.10;;;;;;;0.70;100.00;147848.84;1625663;87;21068;-63
2022/03/05 02:39:02;;;;;;;24.75;13.00;;;;;;;0.67;100.00;147839.81;1625662;88;21040;-64
2022/03/05 02:41:29;;;;;;;25.15;12.75;;;;;;;0.64;100.00;147832.08;1625302;88;21577;-64
2022/03/05 02:43:59;;;;;;;23.80;12.82;;;;;;;0.60;100.00;147821.78;1625517;87;21378;-64
2022/03/05 02:46:28;;;;;;;24.35;12.60;;;;;;;0.57;100.00;147815.34;1625478;88;21061;-64
2022/03/05 02:48:55;;;;;;;23.38;13.30;;;;;;;0.55;100.00;147811.50;1625894;87;21022;-58
2022/03/05 02:51:22;;;;;;;24.18;13.40;;;;;;;0.53;100.00;147806.31;1625579;87;21051;-58
2022/03/05 02:53:50;;;;;;;24.82;12.95;;;;;;;0.53;100.00;147805.05;1625881;87;21127;-58
2022/03/05 02:56:17;;;;;;;25.12;13.65;;;;;;;0.52;100.00;147803.73;1626986;87;21088;-59
2022/03/05 02:58:46;;;;;;;25.17;13.48;;;;;;;0.54;100.00;147808.88;1631459;86;21068;-59
2022/03/05 03:01:14;;;;;;;23.65;13.05;;;;;;;0.56;100.00;147814.08;1635380;87;21155;-59
2022/03/05 03:03:41;;;;;;;22.82;12.88;;;;;;;0.58;100.00;147816.64;1599508;89;21538;-59
2022/03/05 03:06:08;;;;;;;25.72;13.50;;;;;;;0.59;100.00;147819.22;1598136;89;21951;-59
2022/03/05 03:08:35;;;;;;;25.08;14.03;;;;;;;0.61;100.00;147824.37;1601506;88;21108;-59
2022/03/05 03:11:02;;;;;;;25.55;13.62;;;;;;;0.62;100.00;147828.20;1648876;86;21108;-59
2022/03/05 03:13:30;;;;;;;27.07;14.38;;;;;;;0.62;100.00;147828.20;1621682;88;21175;-58
2022/03/05 03:15:57;;;;;;;26.62;14.60;;;;;;;0.64;100.00;147832.08;1660691;86;21001;-59
2022/03/05 03:18:24;;;;;;;23.12;13.45;;;;;;;0.64;100.00;147832.08;1651471;86;21214;-59
2022/03/05 03:20:51;;;;;;;25.52;13.88;;;;;;;0.65;100.00;147834.66;1646876;86;21083;-58
2022/03/05 03:23:21;;;;;;;26.10;13.40;;;;;;;0.65;100.00;147834.66;1639467;86;21151;-58
2022/03/05 03:25:48;;;;;;;26.57;14.15;;;;;;;0.66;100.00;147837.23;1610467;89;21530;-58
2022/03/05 03:28:15;;;;;;;25.37;13.40;;;;;;;0.68;100.00;147842.38;1638392;87;21072;-58
2022/03/05 03:30:43;;;;;;;21.93;12.80;;;;;;;0.69;100.00;147844.95;1605621;88;21166;-58
2022/03/05 03:33:10;;;;;;;26.62;13.60;;;;;;;0.71;100.00;147850.09;1600014;88;21530;-58
2022/03/05 03:35:38;;;;;;;24.47;13.75;;;;;;;0.70;100.00;147848.84;1600544;88;21056;-58
2022/03/05 03:38:05;;;;;;;26.25;13.78;;;;;;;0.71;100.00;147851.41;1600389;88;21044;-60
2022/03/05 03:40:32;;;;;;;24.63;13.78;;;;;;;0.73;100.00;147855.25;1599616;89;21067;-58
2022/03/05 03:43:00;;;;;;;24.75;14.10;;;;;;;0.76;100.00;147862.97;1600032;89;21745;-58
2022/03/05 03:45:27;;;;;;;27.35;14.25;;;;;;;0.78;100.00;147866.84;1599941;89;21253;-58
2022/03/05 03:47:55;;;;;;;24.12;13.30;;;;;;;0.80;100.00;147872.00;1600061;88;21020;-58
2022/03/05 03:50:22;;;;;;;24.90;13.55;;;;;;;0.83;100.00;147879.72;1600456;88;21080;-59
2022/03/05 03:52:50;;;;;;;24.52;13.98;;;;;;;0.84;100.00;147883.59;1600509;88;21028;-59
2022/03/05 03:55:20;;;;;;;25.37;13.58;;;;;;;0.83;100.00;147881.03;1599962;89;21893;-60
2022/03/05 03:57:47;;;;;;;25.32;13.13;;;;;;;0.84;100.00;147882.28;1600170;88;21091;-59
2022/03/05 04:00:17;;;;;;;22.90;12.93;;;;;;;0.83;100.00;147881.03;1600181;88;21135;-58
2022/03/05 04:02:45;;;;;;;23.92;12.95;;;;;;;0.84;100.00;147883.59;1600402;88;21514;-58
2022/03/05 04:05:12;;;;;;;23.32;13.83;;;;;;;0.85;100.00;147884.86;1599875;88;21486;-59
2022/03/05 04:10:27;;;;;;;26.73;13.90;;;;;;;0.85;100.00;147886.17;1615004;88;21124;-59
2022/03/05 04:12:54;;;;;;;22.17;13.62;;;;;;;0.84;100.00;147883.59;1616967;87;21486;-58
2022/03/05 04:15:21;;;;;;;25.25;14.23;;;;;;;0.83;100.00;147881.03;1616354;87;21581;-59
2022/03/05 04:17:50;;;;;;;26.77;13.70;;;;;;;0.84;100.00;147883.59;1616662;87;21064;-59
2022/03/05 04:20:19;;;;;;;25.15;13.40;;;;;;;0.88;100.00;147891.31;1616894;87;21005;-58
2022/03/05 04:22:46;;;;;;;22.45;13.08;;;;;;;0.91;100.00;147900.34;1618924;88;21236;-58
2022/03/05 04:25:13;;;;;;;26.02;13.90;;;;;;;0.90;100.00;147896.47;1618648;88;21698;-60
2022/03/05 04:27:41;;;;;;;25.82;12.25;;;;;;;0.91;100.00;147899.03;1618922;87;21554;-59
2022/03/05 04:30:09;;;;;;;25.97;13.95;;;;;;;0.88;100.00;147891.31;1630796;86;21070;-58
2022/03/05 04:32:38;;;;;;;23.38;12.73;;;;;;;0.85;100.00;147886.17;1609541;87;21067;-58
2022/03/05 04:35:07;;;;;;;25.52;14.30;;;;;;;0.83;100.00;147881.03;1603994;88;21134;-58
2022/03/05 04:37:35;;;;;;;25.82;14.00;;;;;;;0.82;100.00;147878.45;1603856;87;21373;-59
2022/03/05 04:40:03;;;;;;;24.55;13.68;;;;;;;0.83;100.00;147881.03;1604742;87;21103;-59
2022/03/05 04:42:30;;;;;;;24.52;13.98;;;;;;;0.85;100.00;147884.86;1602926;89;21063;-59
2022/03/05 04:44:58;;;;;;;23.98;13.20;;;;;;;0.87;100.00;147888.75;1612439;87;21859;-59
2022/03/05 04:47:25;;;;;;;26.82;14.15;;;;;;;0.89;100.00;147893.89;1637941;87;21134;-58
2022/03/05 04:49:54;;;;;;;26.07;13.80;;;;;;;0.92;100.00;147901.63;1638572;86;21123;-58
2022/03/05 04:52:21;;;;;;;23.47;13.10;;;;;;;0.95;100.00;147909.33;1638397;87;21143;-58
2022/03/05 04:54:48;;;;;;;25.12;13.22;;;;;;;0.95;100.00;147909.33;1638103;87;21114;-58
2022/03/05 04:57:16;;;;;;;23.62;13.85;;;;;;;0.95;100.00;147909.33;1638586;87;21199;-58
2022/03/05 04:59:43;;;;;;;23.32;13.30;;;;;;;0.93;99.70;147905.50;1638301;87;21143;-59
2022/03/05 05:02:10;;;;;;;28.00;14.25;;;;;;;0.89;99.41;147893.89;1638579;87;21217;-58
2022/03/05 05:04:37;;;;;;;24.35;14.18;;;;;;;0.87;99.38;147888.75;1637989;87;21131;-59
2022/03/05 05:07:04;;;;;;;28.45;14.90;;;;;;;0.88;99.24;147891.31;1638897;87;21548;-59
2022/03/05 05:09:31;;;;;;;25.17;14.70;;;;;;;0.87;99.35;147890.02;1638918;86;21161;-59
2022/03/05 05:11:58;;;;;;;24.10;12.93;;;;;;;0.91;99.48;147899.03;1657692;85;21091;-59
2022/03/05 05:14:26;;;;;;;25.68;13.72;;;;;;;0.93;99.38;147905.50;1665526;86;21051;-59
2022/03/05 05:16:53;;;;;;;23.87;13.60;;;;;;;0.98;99.45;147917.06;1666335;84;21466;-59
2022/03/05 05:19:30;;;;;;;26.10;14.38;;;;;;;1.01;98.90;147924.83;1660587;85;21143;-59
2022/03/05 05:22:03;;;;;;;27.35;14.28;;;;;;;1.00;98.60;147922.25;1607320;88;22026;-58
2022/03/05 05:24:34;;;;;;;24.90;13.40;;;;;;;0.98;98.31;147917.06;1643268;86;21127;-58
2022/03/05 05:27:01;;;;;;;26.93;13.72;;;;;;;0.97;98.15;147914.48;1614769;87;21021;-59
2022/03/05 05:29:28;;;;;;;25.45;13.93;;;;;;;0.95;97.96;147910.64;1639388;86;21135;-59
2022/03/05 05:31:55;;;;;;;25.95;14.28;;;;;;;0.93;97.78;147904.19;1640037;87;21015;-59
2022/03/05 05:34:23;;;;;;;26.33;13.68;;;;;;;0.92;97.80;147901.63;1603242;89;21289;-59
2022/03/05 05:36:51;;;;;;;25.57;13.72;;;;;;;0.93;97.87;147904.19;1639848;87;21059;-64
2022/03/05 05:39:18;;;;;;;23.20;13.22;;;;;;;0.93;97.76;147904.19;1603389;89;21550;-64
2022/03/05 05:41:45;;;;;;;26.90;14.90;;;;;;;0.96;97.86;147911.91;1639867;87;21746;-64
2022/03/05 05:44:12;;;;;;;25.90;14.10;;;;;;;1.02;98.13;147927.41;1603014;89;21056;-63
2022/03/05 05:46:40;;;;;;;25.00;13.48;;;;;;;1.10;98.23;147947.98;1639885;87;21739;-58
2022/03/05 05:49:07;;;;;;;25.95;14.93;;;;;;;1.20;98.30;147971.16;1603463;89;21110;-59
2022/03/05 05:51:35;;;;;;;26.02;14.60;;;;;;;1.28;98.30;147993.06;1639558;87;21657;-58
2022/03/05 05:54:03;;;;;;;28.73;15.25;;;;;;;1.35;97.88;148008.56;1603202;89;21139;-59
2022/03/05 05:56:32;;;;;;;25.85;14.50;;;;;;;1.38;97.56;148017.55;1639601;87;21030;-63
2022/03/05 05:59:00;;;;;;;26.48;14.75;;;;;;;1.43;97.54;148030.42;1603192;89;21322;-64
2022/03/05 06:01:27;;;;;;;24.92;13.60;;;;;;;1.51;97.51;148048.50;1639810;87;20991;-64
2022/03/05 06:03:54;;;;;;;24.72;13.80;;;;;;;1.58;97.22;148066.52;1603325;88;21120;-64
2022/03/05 06:06:21;;;;;;;23.73;13.35;;;;;;;1.57;96.67;148065.25;1640065;87;21559;-64
2022/03/05 06:08:49;;;;;;;24.60;13.30;;;;;;;1.58;96.54;148066.52;1602951;88;21132;-65
2022/03/05 06:11:16;;;;;;;23.60;13.45;;;;;;;1.57;96.05;148063.94;1653342;86;21200;-64
2022/03/05 06:13:44;;;;;;;23.05;13.43;;;;;;;1.58;96.31;148066.52;1665556;86;21039;-65
2022/03/05 06:16:13;;;;;;;25.45;13.35;;;;;;;1.63;96.11;148079.39;1666595;86;21016;-63
2022/03/05 06:18:40;;;;;;;25.60;13.83;;;;;;;1.64;95.66;148081.97;1665715;83;21116;-64
2022/03/05 06:21:08;;;;;;;22.80;12.60;;;;;;;1.64;95.42;148081.97;1658416;84;21080;-59
2022/03/05 06:23:37;;;;;;;24.32;12.85;;;;;;;1.66;95.45;148087.17;1652025;85;21855;-59
2022/03/05 06:26:04;;;;;;;24.55;13.50;;;;;;;1.69;95.15;148094.89;1652180;86;21096;-58
2022/03/05 06:28:32;;;;;;;22.00;13.08;;;;;;;1.74;95.15;148106.45;1651833;85;21096;-59
2022/03/05 06:30:59;;;;;;;23.55;12.78;;;;;;;1.79;94.93;148118.06;1637904;86;21035;-64
2022/03/05 06:33:28;;;;;;;27.58;13.95;;;;;;;1.82;94.78;148127.11;1608067;89;21064;-63
2022/03/05 06:35:55;;;;;;;24.95;13.15;;;;;;;1.86;94.41;148136.09;1635397;87;21957;-64
2022/03/05 06:38:22;;;;;;;24.60;13.55;;;;;;;1.85;94.14;148133.53;1607491;89;21064;-64
2022/03/05 06:40:50;;;;;;;22.17;12.68;;;;;;;1.84;93.53;148132.27;1625896;87;21254;-64
2022/03/05 06:43:18;;;;;;;28.17;13.60;;;;;;;1.79;93.13;148119.39;1596171;89;20962;-64
2022/03/05 06:45:47;;;;;;;25.15;13.68;;;;;;;1.75;92.89;148107.77;1623403;87;21032;-59
2022/03/05 06:48:14;;;;;;;23.38;13.53;;;;;;;1.68;92.78;148092.31;1633558;86;21242;-59
2022/03/05 06:50:41;;;;;;;23.60;12.37;;;;;;;1.63;92.58;148079.39;1645107;86;21055;-64
2022/03/05 06:53:08;;;;;;;21.65;13.05;;;;;;;1.56;92.66;148061.37;1653384;86;21045;-66
2022/03/05 06:55:35;;;;;;;25.27;13.53;;;;;;;1.55;92.79;148058.78;1653553;86;21068;-59
2022/03/05 06:58:03;;;;;;;26.05;13.65;;;;;;;1.54;92.92;148056.22;1653679;86;21032;-59
2022/03/05 07:00:30;;;;;;;26.95;13.40;;;;;;;1.55;93.02;148058.78;1653430;86;22303;-59
2022/03/05 07:02:57;;;;;;;22.58;13.05;;;;;;;1.53;92.87;148054.91;1653564;86;20980;-64
2022/03/05 07:05:25;;;;;;;23.55;13.22;;;;;;;1.52;92.68;148051.06;1653652;86;21075;-64
2022/03/05 07:07:52;;;;;;;25.88;13.58;;;;;;;1.46;92.54;148035.62;1653735;86;21064;-64
2022/03/05 07:10:19;;;;;;;26.02;13.58;;;;;;;1.41;92.66;148025.27;1640987;86;21066;-64
2022/03/05 07:12:48;;;;;;;24.77;14.05;;;;;;;1.38;92.77;148016.28;1613725;88;21589;-64
2022/03/05 07:15:15;;;;;;;23.40;13.30;;;;;;;1.36;92.83;148012.39;1613870;88;21363;-64
2022/03/05 07:17:49;;;;;;;23.60;13.38;;;;;;;1.34;93.05;148007.25;1613645;88;21120;-64
2022/03/05 07:20:17;;;;;;;24.43;13.35;;;;;;;1.36;93.41;148011.14;1620129;86;20993;-63
2022/03/05 07:22:44;;;;;;;24.67;13.28;;;;;;;1.38;93.57;148017.55;1618805;88;21578;-64
2022/03/05 07:25:11;;;;;;;25.82;14.03;;;;;;;1.41;93.57;148025.27;1619099;88;21475;-64
2022/03/05 07:27:39;;;;;;;22.50;12.78;;;;;;;1.43;93.47;148030.42;1641892;86;21052;-58
2022/03/05 07:30:09;;;;;;;23.75;13.50;;;;;;;1.45;93.50;148034.31;1633826;87;21076;-63
2022/03/05 07:32:36;;;;;;;21.68;12.25;;;;;;;1.49;93.68;148043.34;1604919;87;21035;-60
2022/03/05 07:35:05;;;;;;;27.58;13.53;;;;;;;1.51;93.51;148048.50;1604230;89;21090;-59
2022/03/05 07:37:32;;;;;;;25.37;13.68;;;;;;;1.54;93.52;148056.22;1607831;87;21682;-59
2022/03/05 07:39:59;;;;;;;26.10;12.73;;;;;;;1.57;93.42;148063.94;1604215;88;21650;-58
2022/03/05 07:42:27;;;;;;;22.37;12.82;;;;;;;1.60;93.46;148071.66;1602924;89;21116;-60
2022/03/05 07:44:54;;;;;;;30.50;14.30;;;;;;;1.62;93.25;148076.81;1610257;86;21095;-59
2022/03/05 07:47:22;;;;;;;24.10;13.35;;;;;;;1.60;92.99;148071.66;1637649;87;21123;-58
2022/03/05 07:49:51;;;;;;;25.02;13.18;;;;;;;1.57;92.93;148063.94;1610225;87;21192;-59
2022/03/05 07:52:18;;;;;;;26.50;13.03;;;;;;;1.54;93.01;148056.22;1610566;89;20949;-60
2022/03/05 07:54:45;;;;;;;25.95;13.90;;;;;;;1.52;93.09;148051.06;1610099;89;21079;-60
2022/03/05 07:57:12;;;;;;;26.10;14.13;;;;;;;1.52;93.04;148052.33;1610397;89;21105;-64
2022/03/05 07:59:40;;;;;;;24.87;13.58;;;;;;;1.51;93.18;148048.50;1614311;87;21072;-64
2022/03/05 08:02:07;;;;;;;24.12;13.90;;;;;;;1.52;93.29;148051.06;1647977;87;21526;-64
2022/03/05 08:04:35;;;;;;;23.00;13.32;;;;;;;1.58;93.59;148066.52;1625379;87;21084;-64
2022/03/05 08:07:07;;;;;;;25.95;12.53;;;;;;;1.67;93.66;148089.75;1604877;87;21033;-64
2022/03/05 08:09:33;;;;;;;23.98;13.45;;;;;;;1.74;93.40;148106.45;1619653;86;21527;-65
2022/03/05 08:12:05;;;;;;;24.23;13.28;;;;;;;1.79;92.85;148118.06;1657238;85;21546;-67
2022/03/05 08:14:34;;;;;;;24.60;13.80;;;;;;;1.79;92.78;148118.06;1668638;85;21770;-64
2022/03/05 08:17:03;;;;;;;24.63;13.05;;;;;;;1.85;92.87;148133.53;1669202;85;20986;-64
2022/03/05 08:19:30;;;;;;;21.10;12.53;;;;;;;1.90;92.76;148146.45;1667609;84;21068;-63
2022/03/05 08:21:58;;;;;;;24.98;14.33;;;;;;;1.96;92.64;148160.59;1640478;86;21124;-64
2022/03/05 08:24:27;;;;;;;26.10;13.75;;;;;;;2.00;92.37;148172.22;1637431;86;21710;-64
2022/03/05 08:26:54;;;;;;;25.10;13.13;;;;;;;2.06;92.25;148186.41;1638289;86;21555;-64
2022/03/05 08:29:21;;;;;;;21.10;13.18;;;;;;;2.14;92.26;148205.75;1634137;87;21067;-64
2022/03/05 08:31:49;;;;;;;31.02;14.63;;;;;;;2.19;91.52;148218.62;1620822;88;21091;-63
2022/03/05 08:34:16;;;;;;;28.30;14.07;;;;;;;2.20;91.15;148221.20;1621767;87;20981;-63
2022/03/05 08:36:43;;;;;;;23.77;13.00;;;;;;;2.25;91.54;148234.09;1621010;87;21513;-63
2022/03/05 08:39:11;;;;;;;24.00;13.22;;;;;;;2.36;91.12;148259.91;1621096;88;21852;-63
2022/03/05 08:41:38;;;;;;;25.52;13.30;;;;;;;2.38;89.56;148265.06;1620304;88;21059;-58
2022/03/05 08:44:05;;;;;;;22.10;12.25;;;;;;;2.39;89.78;148267.63;1621121;88;21032;-58
2022/03/05 08:46:32;;;;;;;23.05;12.53;;;;;;;2.52;90.10;148301.13;1621556;87;21077;-58
2022/03/05 08:49:03;;;;;;;21.97;12.55;;;;;;;2.62;90.10;148324.38;1621435;88;20988;-58
2022/03/05 08:51:30;;;;;;;21.17;12.50;;;;;;;2.69;89.59;148343.73;1620626;87;21078;-58
2022/03/05 08:53:57;;;;;;;23.40;13.38;;;;;;;2.75;89.18;148357.88;1620876;88;21074;-58
2022/03/05 08:56:25;;;;;;;23.98;13.35;;;;;;;2.76;87.61;148360.45;1621107;88;21773;-60
2022/03/05 08:58:52;;;;;;;21.42;12.18;;;;;;;2.68;86.71;148339.84;1620822;88;20988;-59
2022/03/05 09:01:20;;;;;;;24.23;12.63;;;;;;;2.61;87.01;148321.80;1620533;88;21008;-59
2022/03/05 09:03:47;;;;;;;22.70;12.78;;;;;;;2.66;87.85;148334.69;1620519;88;21215;-59
2022/03/05 09:06:20;;;;;;;19.95;11.95;;;;;;;2.79;88.40;148368.23;1621032;87;21052;-64
2022/03/05 09:08:49;;;;;;;22.27;12.65;;;;;;;2.94;88.45;148404.33;1621051;88;21466;-63
2022/03/05 09:11:17;;;;;;;23.67;12.70;;;;;;;3.08;88.23;148439.16;1645655;86;21482;-64
2022/03/05 09:13:44;;;;;;;26.12;12.33;;;;;;;3.19;87.78;148467.56;1663990;86;21060;-65
2022/03/05 09:16:11;;;;;;;21.12;12.45;;;;;;;3.30;87.32;148495.92;1664888;85;21696;-64
2022/03/05 09:18:38;;;;;;;23.07;12.73;;;;;;;3.34;86.03;148504.97;1664589;85;21069;-64
2022/03/05 09:21:07;;;;;;;24.50;12.37;;;;;;;3.28;84.10;148489.50;1650652;85;21510;-64
2022/03/05 09:23:35;;;;;;;23.85;13.18;;;;;;;3.18;83.23;148463.67;1637249;86;21052;-65
2022/03/05 09:26:03;;;;;;;21.45;12.28;;;;;;;3.13;83.81;148452.09;1637949;87;21573;-63
2022/03/05 09:28:30;;;;;;;22.60;12.78;;;;;;;3.14;83.39;148455.94;1637681;87;21114;-63
2022/03/05 09:30:58;;;;;;;22.90;12.95;;;;;;;3.08;83.42;148439.16;1623623;86;21063;-65
2022/03/05 09:33:31;;;;;;;23.42;12.82;;;;;;;3.01;83.61;148423.69;1621026;88;21055;-65
2022/03/05 09:35:56;;;;;;;25.65;13.08;;;;;;;2.97;83.72;148413.37;1621053;88;21104;-63
2022/03/05 09:38:24;;;;;;;23.60;12.25;;;;;;;2.99;84.24;148417.27;1621205;88;21059;-65
2022/03/05 09:40:52;;;;;;;18.95;11.85;;;;;;;3.10;84.84;148445.62;1621053;88;21596;-65
2022/03/05 09:43:19;;;;;;;22.93;12.40;;;;;;;3.23;84.66;148476.61;1621039;88;21096;-64
2022/03/05 09:45:48;;;;;;;20.65;11.63;;;;;;;3.29;84.05;148492.09;1621051;88;21036;-63
2022/03/05 09:48:16;;;;;;;21.75;12.55;;;;;;;3.32;83.75;148498.56;1621180;88;21029;-64
2022/03/05 09:50:44;;;;;;;22.25;12.50;;;;;;;3.38;83.54;148515.30;1620936;88;21087;-65
2022/03/05 09:53:12;;;;;;;23.15;13.13;;;;;;;3.38;82.29;148514.03;1621613;88;21914;-65
2022/03/05 09:55:40;;;;;;;20.08;11.95;;;;;;;3.33;81.25;148502.41;1620726;88;21112;-64
2022/03/05 09:58:07;;;;;;;23.55;12.03;;;;;;;3.30;80.74;148494.67;1621525;88;21099;-64
2022/03/05 10:00:34;;;;;;;21.02;11.85;;;;;;;3.23;79.96;148476.61;1620964;88;21087;-64
2022/03/05 10:03:06;;;;;;;22.65;13.13;;;;;;;3.14;80.32;148454.67;1621464;87;21084;-64
2022/03/05 10:05:37;;;;;;;20.68;12.53;;;;;;;3.14;80.96;148455.94;1620430;87;21261;-65
2022/03/05 10:08:12;;;;;;;20.55;11.70;;;;;;;3.29;81.62;148493.34;1621388;87;21066;-64
2022/03/05 10:11:01;;;;;;;18.92;11.20;;;;;;;3.42;80.28;148525.61;1620089;86;21652;-63
2022/03/05 10:13:31;;;;;;;24.00;11.83;;;;;;;3.47;79.22;148535.97;1662237;86;21033;-65
2022/03/05 10:16:06;;;;;;;20.97;11.90;;;;;;;3.38;76.94;148515.30;1664605;86;21061;-65
2022/03/05 10:18:40;;;;;;;22.82;12.15;;;;;;;3.24;76.20;148480.45;1665312;86;20992;-64
2022/03/05 10:21:09;;;;;;;21.27;11.30;;;;;;;3.10;76.95;148445.62;1652992;85;20981;-64
2022/03/05 10:23:40;;;;;;;20.72;11.73;;;;;;;3.06;77.67;148435.31;1642053;86;21060;-64
2022/03/05 10:26:08;;;;;;;21.40;12.20;;;;;;;3.02;77.95;148425.00;1642232;86;21119;-64
2022/03/05 10:28:40;;;;;;;20.92;10.58;;;;;;;2.94;78.70;148404.33;1642255;86;21068;-64
2022/03/05 10:31:10;;;;;;;20.80;10.98;;;;;;;2.96;79.30;148409.48;1626252;87;21277;-63
2022/03/05 10:33:44;;;;;;;21.25;12.10;;;;;;;2.92;78.53;148399.17;1654767;86;21381;-64
2022/03/05 10:36:25;;;;;;;24.90;12.80;;;;;;;2.77;78.75;148363.09;1655453;86;21021;-63
2022/03/05 10:38:59;;;;;;;21.77;12.75;;;;;;;2.68;78.89;148339.84;1654961;85;21576;-65
2022/03/05 10:41:34;;;;;;;22.30;12.75;;;;;;;2.59;78.31;148317.91;1654985;86;21064;-65
2022/03/05 10:44:11;;;;;;;22.95;12.55;;;;;;;2.45;78.98;148283.09;1655471;86;21933;-65
2022/03/05 10:46:48;;;;;;;22.27;12.20;;;;;;;2.39;79.63;148268.89;1655147;86;21143;-65
2022/03/05 10:49:20;;;;;;;24.32;12.70;;;;;;;2.32;80.09;148250.86;1655307;86;21131;-63
2022/03/05 10:52:06;;;;;;;18.87;11.22;;;;;;;2.34;80.62;148254.75;1655269;86;21378;-64
2022/03/05 10:54:40;;;;;;;24.00;11.97;;;;;;;2.40;81.10;148270.20;1655477;86;21176;-63
2022/03/05 10:57:23;;;;;;;21.82;11.73;;;;;;;2.48;81.17;148290.83;1655655;86;21903;-63
2022/03/05 10:59:53;;;;;;;22.20;11.75;;;;;;;2.54;81.02;148306.34;1608710;88;21067;-65
2022/03/05 11:02:24;;;;;;;18.20;10.58;;;;;;;2.55;80.58;148307.59;1623333;87;21083;-64
2022/03/05 11:04:54;;;;;;;19.80;10.18;;;;;;;2.56;80.33;148311.48;1625204;88;21123;-64
2022/03/05 11:07:25;;;;;;;14.45;9.13;;;;;;;2.61;79.96;148321.80;1656566;86;21063;-65
2022/03/05 11:09:56;;;;;;;18.57;10.20;;;;;;;2.68;79.22;148339.84;1664413;85;21177;-63
2022/03/05 11:12:25;;;;;;;20.17;10.63;;;;;;;2.70;79.64;148346.31;1656194;86;21024;-59
2022/03/05 11:15:00;;;;;;;17.10;9.30;;;;;;;2.83;79.45;148378.55;1657452;86;21103;-59
2022/03/05 11:17:28;;;;;;;16.10;8.55;;;;;;;2.96;79.35;148410.80;1667457;85;21538;-59
2022/03/05 11:19:56;;;;;;;17.20;9.75;;;;;;;3.15;77.96;148457.25;1642119;86;21068;-59
2022/03/05 11:22:25;;;;;;;17.82;9.20;;;;;;;3.23;75.45;148476.61;1596712;88;21139;-64